createdAt,value
2018-08-09T00:00:08.105Z,10.60
2018-08-09T00:02:36.591Z,11.07
2018-08-09T00:05:05.563Z,12.07
2018-08-09T00:07:34.020Z,11.40
2018-08-09T00:10:02.532Z,11.50
2018-08-09T00:12:30.967Z,12.33
2018-08-09T00:14:59.456Z,11.33
2018-08-09T00:17:27.968Z,10.77
2018-08-09T00:19:57.293Z,10.90
2018-08-09T00:22:25.743Z,10.87
2018-08-09T00:24:54.249Z,9.90
2018-08-09T00:27:22.653Z,10.43
2018-08-09T00:29:51.712Z,11.00
2018-08-09T00:32:20.165Z,9.70
2018-08-09T00:34:48.885Z,10.90
2018-08-09T00:37:17.520Z,11.30
2018-08-09T00:39:45.996Z,11.73
2018-08-09T00:42:14.436Z,8.90
2018-08-09T00:44:42.896Z,10.20
2018-08-09T00:47:11.388Z,9.90
2018-08-09T00:49:39.796Z,10.73
2018-08-09T00:52:08.263Z,10.70
2018-08-09T00:54:36.688Z,11.00
2018-08-09T00:57:05.247Z,9.60
2018-08-09T00:59:33.736Z,11.07
2018-08-09T01:02:02.276Z,11.47
2018-08-09T01:04:30.744Z,10.00
2018-08-09T01:06:59.278Z,11.40
2018-08-09T01:09:27.681Z,10.07
2018-08-09T01:11:56.151Z,11.30
2018-08-09T01:14:24.657Z,10.37
2018-08-09T01:16:53.134Z,10.13
2018-08-09T01:19:21.598Z,11.40
2018-08-09T01:21:50.060Z,10.13
2018-08-09T01:24:18.582Z,11.40
2018-08-09T01:26:47.176Z,11.20
2018-08-09T01:29:15.624Z,10.77
2018-08-09T01:31:44.076Z,10.90
2018-08-09T01:34:12.535Z,10.13
2018-08-09T01:36:41.027Z,10.97
2018-08-09T01:39:12.780Z,10.77
2018-08-09T01:42:51.562Z,10.57
2018-08-09T01:45:20.021Z,12.10
2018-08-09T01:47:48.472Z,11.03
2018-08-09T01:50:16.935Z,11.40
2018-08-09T01:52:45.728Z,10.70
2018-08-09T01:55:14.194Z,11.13
2018-08-09T01:57:42.631Z,11.10
2018-08-09T02:00:11.163Z,12.40
2018-08-09T02:02:39.668Z,11.50
2018-08-09T02:05:08.940Z,10.83
2018-08-09T02:07:37.389Z,13.30
2018-08-09T02:10:05.939Z,13.17
2018-08-09T02:12:34.357Z,11.40
2018-08-09T02:15:02.803Z,13.00
2018-08-09T02:17:31.325Z,11.17
2018-08-09T02:19:59.969Z,10.77
2018-08-09T02:22:28.494Z,12.77
2018-08-09T02:24:56.952Z,12.43
2018-08-09T02:27:25.512Z,12.57
2018-08-09T02:29:53.948Z,12.00
2018-08-09T02:32:22.382Z,12.47
2018-08-09T02:34:50.873Z,11.87
2018-08-09T02:37:19.345Z,10.60
2018-08-09T02:39:47.848Z,11.57
2018-08-09T02:42:16.421Z,10.30
2018-08-09T02:44:44.893Z,11.17
2018-08-09T02:47:13.392Z,10.60
2018-08-09T02:49:41.874Z,10.70
2018-08-09T02:52:10.348Z,10.50
2018-08-09T02:54:38.801Z,11.07
2018-08-09T02:57:07.397Z,10.10
2018-08-09T02:59:35.936Z,10.57
2018-08-09T03:02:04.956Z,9.90
2018-08-09T03:04:33.440Z,9.00
2018-08-09T03:07:01.868Z,9.67
2018-08-09T03:09:30.307Z,8.37
2018-08-09T03:11:58.794Z,8.80
2018-08-09T03:14:27.312Z,9.53
2018-08-09T03:16:55.728Z,9.87
2018-08-09T03:19:24.173Z,12.27
2018-08-09T03:21:52.696Z,10.10
2018-08-09T03:24:21.433Z,10.17
2018-08-09T03:26:49.932Z,10.63
2018-08-09T03:29:18.375Z,9.00
2018-08-09T03:31:46.900Z,9.83
2018-08-09T03:34:15.348Z,9.50
2018-08-09T03:36:43.769Z,8.77
2018-08-09T03:39:12.935Z,9.30
2018-08-09T03:41:41.346Z,9.23
2018-08-09T03:44:09.885Z,8.80
2018-08-09T03:46:38.461Z,9.17
2018-08-09T03:49:06.968Z,8.90
2018-08-09T03:51:35.740Z,10.07
2018-08-09T03:54:04.281Z,9.87
2018-08-09T03:56:32.756Z,9.47
2018-08-09T03:59:03.227Z,9.33
2018-08-09T04:01:31.688Z,10.03
2018-08-09T04:04:00.377Z,9.47
2018-08-09T04:06:29.364Z,9.73
2018-08-09T04:08:57.769Z,9.20
2018-08-09T04:11:26.813Z,9.70
2018-08-09T04:13:55.254Z,9.27
2018-08-09T04:16:23.725Z,9.47
2018-08-09T04:18:52.156Z,9.00
2018-08-09T04:21:20.654Z,10.10
2018-08-09T04:23:49.355Z,9.10
2018-08-09T04:26:18.690Z,8.90
2018-08-09T04:28:47.132Z,7.93
2018-08-09T04:31:15.592Z,9.70
2018-08-09T04:33:44.040Z,9.80
2018-08-09T04:36:13.147Z,8.93
2018-08-09T04:38:41.836Z,10.13
2018-08-09T04:41:10.293Z,9.90
2018-08-09T04:43:38.748Z,9.50
2018-08-09T04:46:07.633Z,9.63
2018-08-09T04:48:36.372Z,9.70
2018-08-09T04:51:04.813Z,10.27
2018-08-09T04:53:33.274Z,9.80
2018-08-09T04:56:01.735Z,9.90
2018-08-09T04:58:30.234Z,9.63
2018-08-09T05:00:58.651Z,10.93
2018-08-09T05:03:27.120Z,11.40
2018-08-09T05:05:56.490Z,11.00
2018-08-09T05:08:25.025Z,10.17
2018-08-09T05:10:53.674Z,10.00
2018-08-09T05:13:22.088Z,9.20
2018-08-09T05:15:50.676Z,10.40
2018-08-09T05:18:19.205Z,10.33
2018-08-09T05:20:47.724Z,9.93
2018-08-09T05:23:16.254Z,9.53
2018-08-09T05:25:44.885Z,9.80
2018-08-09T05:28:13.380Z,10.60
2018-08-09T05:30:41.894Z,11.97
2018-08-09T05:33:10.332Z,10.53
2018-08-09T05:35:38.805Z,10.97
2018-08-09T05:38:07.294Z,10.57
2018-08-09T05:40:35.727Z,10.17
2018-08-09T05:43:04.255Z,12.00
2018-08-09T05:45:32.706Z,10.40
2018-08-09T05:48:01.124Z,10.40
2018-08-09T05:50:29.590Z,10.23
2018-08-09T05:52:58.169Z,9.83
2018-08-09T05:55:26.688Z,10.00
2018-08-09T05:57:55.140Z,10.10
2018-08-09T06:00:23.769Z,9.87
2018-08-09T06:02:52.212Z,9.83
2018-08-09T06:05:20.709Z,9.20
2018-08-09T06:07:49.674Z,10.60
2018-08-09T06:10:18.111Z,9.83
2018-08-09T06:12:46.611Z,10.00
2018-08-09T06:15:15.168Z,10.30
2018-08-09T06:17:43.664Z,10.47
2018-08-09T06:20:12.182Z,10.67
2018-08-09T06:22:40.641Z,10.70
2018-08-09T06:25:09.172Z,10.20
2018-08-09T06:27:37.609Z,9.53
2018-08-09T06:30:08.439Z,9.50
2018-08-09T06:32:37.196Z,9.90
2018-08-09T06:35:07.543Z,9.27
2018-08-09T06:37:36.220Z,9.67
2018-08-09T06:40:07.293Z,9.53
2018-08-09T06:42:36.064Z,10.27
2018-08-09T06:45:04.981Z,9.70
2018-08-09T06:47:33.477Z,10.23
2018-08-09T06:50:01.953Z,9.53
2018-08-09T06:52:30.396Z,14.10
2018-08-09T06:54:58.911Z,10.23
2018-08-09T06:57:27.416Z,16.80
2018-08-09T06:59:55.921Z,16.60
2018-08-09T07:02:24.418Z,15.90
2018-08-09T07:04:52.928Z,17.87
2018-08-09T07:07:21.454Z,20.07
2018-08-09T07:09:50.003Z,18.47
2018-08-09T07:12:18.460Z,19.60
2018-08-09T07:14:47.032Z,19.70
2018-08-09T07:17:15.523Z,20.77
2018-08-09T07:19:44.127Z,23.53
2018-08-09T07:22:12.820Z,23.37
2018-08-09T07:24:41.467Z,20.17
2018-08-09T07:27:10.156Z,22.00
2018-08-09T07:29:39.656Z,21.13
2018-08-09T07:32:08.180Z,21.87
2018-08-09T07:34:36.660Z,20.40
2018-08-09T07:37:05.161Z,22.40
2018-08-09T07:39:34.393Z,20.40
2018-08-09T07:42:02.969Z,16.77
2018-08-09T07:44:31.636Z,18.97
2018-08-09T07:47:00.143Z,20.57
2018-08-09T07:49:29.033Z,19.33
2018-08-09T07:51:57.541Z,19.23
2018-08-09T07:54:26.119Z,18.67
2018-08-09T07:56:54.748Z,17.60
2018-08-09T07:59:23.265Z,16.50
2018-08-09T08:01:52.268Z,16.60
2018-08-09T08:04:20.979Z,14.97
2018-08-09T08:06:49.570Z,16.47
2018-08-09T08:09:18.120Z,15.73
2018-08-09T08:11:46.591Z,16.67
2018-08-09T08:14:15.196Z,15.10
2018-08-09T08:16:43.801Z,13.73
2018-08-09T08:19:12.395Z,13.17
2018-08-09T08:21:41.531Z,14.43
2018-08-09T08:24:10.000Z,14.93
2018-08-09T08:26:38.576Z,11.77
2018-08-09T08:29:07.176Z,13.10
2018-08-09T08:31:35.693Z,12.83
2018-08-09T08:34:04.180Z,10.93
2018-08-09T08:36:32.665Z,10.53
2018-08-09T08:39:02.687Z,10.10
2018-08-09T08:41:31.531Z,12.17
2018-08-09T08:44:00.700Z,12.83
2018-08-09T08:46:29.223Z,11.97
2018-08-09T08:48:57.775Z,12.37
2018-08-09T08:51:26.280Z,10.37
2018-08-09T08:53:54.731Z,13.03
2018-08-09T08:56:23.521Z,13.23
2018-08-09T08:58:52.353Z,12.00
2018-08-09T09:01:20.850Z,11.17
2018-08-09T09:03:49.427Z,12.83
2018-08-09T09:06:18.013Z,13.47
2018-08-09T09:08:47.090Z,13.77
2018-08-09T09:11:15.602Z,13.60
2018-08-09T09:13:44.149Z,13.43
2018-08-09T09:16:12.691Z,12.17
2018-08-09T09:18:42.084Z,8.87
2018-08-09T09:21:10.592Z,9.97
2018-08-09T09:23:39.128Z,8.80
2018-08-09T09:26:07.736Z,8.53
2018-08-09T09:28:36.293Z,9.40
2018-08-09T09:31:04.893Z,7.40
2018-08-09T09:33:33.470Z,7.97
2018-08-09T09:36:02.432Z,7.90
2018-08-09T09:38:31.073Z,8.40
2018-08-09T09:40:59.615Z,8.90
2018-08-09T09:43:28.105Z,8.87
2018-08-09T09:45:56.545Z,8.17
2018-08-09T09:48:25.060Z,8.43
2018-08-09T09:50:53.540Z,9.13
2018-08-09T09:53:21.972Z,6.63
2018-08-09T09:55:50.448Z,7.50
2018-08-09T09:58:19.266Z,6.30
2018-08-09T10:00:53.348Z,7.70
2018-08-09T10:03:22.009Z,6.90
2018-08-09T10:05:50.481Z,6.97
2018-08-09T10:08:18.953Z,7.33
2018-08-09T10:10:47.441Z,7.43
2018-08-09T10:13:15.985Z,6.30
2018-08-09T10:15:44.476Z,6.57
2018-08-09T10:18:13.004Z,6.73
2018-08-09T10:20:41.508Z,6.47
2018-08-09T10:23:09.973Z,6.40
2018-08-09T10:25:38.404Z,6.40
2018-08-09T10:28:07.028Z,6.93
2018-08-09T10:30:36.209Z,5.90
2018-08-09T10:33:04.770Z,6.93
2018-08-09T10:35:33.459Z,6.60
2018-08-09T10:38:02.632Z,5.10
2018-08-09T10:40:31.127Z,6.60
2018-08-09T10:42:59.585Z,5.63
2018-08-09T10:45:28.021Z,5.57
2018-08-09T10:47:56.529Z,5.40
2018-08-09T10:50:25.026Z,5.40
2018-08-09T10:52:53.567Z,4.30
2018-08-09T10:55:22.057Z,5.20
2018-08-09T10:57:50.501Z,5.40
2018-08-09T11:00:19.917Z,5.63
2018-08-09T11:02:48.368Z,5.87
2018-08-09T11:05:16.859Z,5.53
2018-08-09T11:07:45.300Z,5.50
2018-08-09T11:10:13.929Z,4.97
2018-08-09T11:12:42.380Z,5.60
2018-08-09T11:15:12.318Z,5.30
2018-08-09T11:17:40.954Z,4.40
2018-08-09T11:20:09.581Z,5.03
2018-08-09T11:22:38.403Z,3.50
2018-08-09T11:25:07.840Z,3.33
2018-08-09T11:27:36.356Z,4.37
2018-08-09T11:30:05.640Z,3.97
2018-08-09T11:32:34.658Z,4.20
2018-08-09T11:35:03.169Z,3.70
2018-08-09T11:37:31.679Z,3.80
2018-08-09T11:40:00.256Z,4.10
2018-08-09T11:42:28.909Z,4.50
2018-08-09T11:44:57.493Z,3.57
2018-08-09T11:47:26.040Z,4.40
2018-08-09T11:49:54.674Z,4.73
2018-08-09T11:52:23.304Z,4.00
2018-08-09T11:54:51.900Z,4.77
2018-08-09T11:57:20.551Z,4.50
2018-08-09T11:59:49.022Z,5.23
2018-08-09T12:02:18.227Z,5.27
2018-08-09T12:04:47.281Z,5.67
2018-08-09T12:07:15.863Z,4.20
2018-08-09T12:09:44.338Z,4.00
2018-08-09T12:12:13.105Z,4.17
2018-08-09T12:14:41.982Z,4.67
2018-08-09T12:17:10.520Z,3.60
2018-08-09T12:19:39.012Z,4.00
2018-08-09T12:22:07.545Z,3.73
2018-08-09T12:24:36.037Z,3.90
2018-08-09T12:27:04.640Z,3.90
2018-08-09T12:29:33.063Z,4.20
2018-08-09T12:32:01.617Z,4.63
2018-08-09T12:34:30.672Z,3.93
2018-08-09T12:36:59.201Z,4.27
2018-08-09T12:39:28.485Z,3.43
2018-08-09T12:41:57.070Z,4.90
2018-08-09T12:44:25.527Z,4.40
2018-08-09T12:46:54.052Z,4.23
2018-08-09T12:49:22.601Z,3.63
2018-08-09T12:51:51.163Z,4.50
2018-08-09T12:54:19.742Z,3.63
2018-08-09T12:56:48.443Z,4.47
2018-08-09T12:59:16.905Z,3.80
2018-08-09T13:01:45.472Z,3.93
2018-08-09T13:04:14.101Z,4.70
2018-08-09T13:06:42.626Z,3.87
2018-08-09T13:09:12.097Z,3.87
2018-08-09T13:11:40.648Z,3.67
2018-08-09T13:14:09.792Z,3.80
2018-08-09T13:16:38.293Z,3.40
2018-08-09T13:19:07.063Z,4.20
2018-08-09T13:21:35.602Z,4.40
2018-08-09T13:24:04.263Z,3.73
2018-08-09T13:26:33.002Z,3.83
2018-08-09T13:29:01.781Z,3.73
2018-08-09T13:31:30.356Z,3.87
2018-08-09T13:33:58.877Z,3.47
2018-08-09T13:36:27.409Z,3.70
2018-08-09T13:38:55.905Z,4.40
2018-08-09T13:41:24.399Z,4.00
2018-08-09T13:43:53.503Z,3.50
2018-08-09T13:46:22.004Z,3.57
2018-08-09T13:48:50.561Z,3.73
2018-08-09T13:51:19.127Z,3.60
2018-08-09T13:53:47.633Z,3.63
2018-08-09T14:09:20.677Z,3.80
2018-08-09T14:11:49.167Z,3.73
2018-08-09T14:14:17.688Z,3.40
2018-08-09T14:16:46.307Z,5.43
2018-08-09T14:19:14.912Z,3.50
2018-08-09T14:21:43.420Z,3.40
2018-08-09T14:24:11.909Z,3.70
2018-08-09T14:26:40.397Z,3.90
2018-08-09T14:29:09.589Z,4.37
2018-08-09T14:31:38.519Z,4.10
2018-08-09T14:34:07.169Z,4.10
2018-08-09T14:36:35.793Z,3.87
2018-08-09T14:39:08.705Z,4.87
2018-08-09T14:41:37.237Z,4.33
2018-08-09T14:44:07.035Z,3.87
2018-08-09T14:46:35.912Z,3.30
2018-08-09T14:49:04.558Z,4.30
2018-08-09T14:51:33.173Z,3.10
2018-08-09T14:54:01.836Z,3.10
2018-08-09T14:56:30.380Z,3.50
2018-08-09T14:58:59.052Z,3.60
2018-08-09T15:01:27.480Z,4.00
2018-08-09T15:03:55.980Z,4.30
2018-08-09T15:06:25.537Z,3.73
2018-08-09T15:08:54.121Z,4.27
2018-08-09T15:11:22.798Z,3.60
2018-08-09T15:13:51.336Z,4.40
2018-08-09T15:16:20.000Z,3.87
2018-08-09T15:18:48.818Z,3.77
2018-08-09T15:21:17.312Z,3.20
2018-08-09T15:23:45.984Z,3.33
2018-08-09T15:26:14.442Z,3.77
2018-08-09T15:28:43.093Z,3.33
2018-08-09T15:31:11.532Z,3.43
2018-08-09T15:33:40.751Z,3.40
2018-08-09T15:36:09.468Z,3.80
2018-08-09T15:38:37.997Z,3.13
2018-08-09T15:41:06.642Z,3.40
2018-08-09T15:43:35.321Z,3.20
2018-08-09T15:46:03.989Z,3.47
2018-08-09T15:48:32.552Z,4.30
2018-08-09T15:51:01.019Z,3.53
2018-08-09T15:53:29.597Z,3.07
2018-08-09T16:09:02.568Z,3.23
2018-08-09T16:11:31.191Z,3.90
2018-08-09T16:13:59.686Z,3.33
2018-08-09T16:16:28.333Z,3.10
2018-08-09T16:18:57.824Z,3.60
2018-08-09T16:21:26.300Z,3.87
2018-08-09T16:23:54.791Z,3.67
2018-08-09T16:26:23.423Z,3.70
2018-08-09T16:28:52.038Z,3.60
2018-08-09T16:31:21.412Z,3.50
2018-08-09T16:33:50.613Z,4.03
2018-08-09T16:36:19.103Z,4.30
2018-08-09T16:38:47.641Z,3.67
2018-08-09T16:41:16.176Z,3.30
2018-08-09T16:43:44.728Z,3.83
2018-08-09T16:46:13.421Z,3.60
2018-08-09T16:48:41.992Z,2.97
2018-08-09T16:51:10.534Z,2.73
2018-08-09T16:53:39.641Z,3.00
2018-08-09T16:56:08.222Z,3.33
2018-08-09T16:58:37.423Z,3.23
2018-08-09T17:01:05.920Z,3.40
2018-08-09T17:03:34.517Z,3.40
2018-08-09T17:06:03.461Z,3.27
2018-08-09T17:08:32.044Z,3.40
2018-08-09T17:11:00.552Z,3.27
2018-08-09T17:13:29.096Z,3.30
2018-08-09T17:15:58.378Z,3.90
2018-08-09T17:18:26.993Z,3.30
2018-08-09T17:20:55.656Z,2.57
2018-08-09T17:23:24.218Z,3.10
2018-08-09T17:25:52.776Z,2.73
2018-08-09T17:28:21.460Z,3.60
2018-08-09T17:30:49.980Z,3.00
2018-08-09T17:33:19.329Z,2.90
2018-08-09T17:35:47.895Z,2.87
2018-08-09T17:38:17.113Z,2.83
2018-08-09T17:40:45.654Z,2.80
2018-08-09T17:43:14.214Z,2.90
2018-08-09T17:45:42.848Z,2.73
2018-08-09T17:48:11.349Z,2.20
2018-08-09T17:50:39.975Z,2.20
2018-08-09T17:53:09.106Z,2.90
2018-08-09T17:55:38.185Z,3.70
2018-08-09T17:58:06.765Z,2.70
2018-08-09T18:00:36.136Z,2.20
2018-08-09T18:03:05.141Z,2.50
2018-08-09T18:05:33.697Z,2.70
2018-08-09T18:08:02.556Z,2.60
2018-08-09T18:10:34.538Z,2.40
2018-08-09T18:13:03.026Z,2.60
2018-08-09T18:15:32.167Z,2.67
2018-08-09T18:18:01.604Z,2.50
2018-08-09T18:20:33.872Z,2.80
2018-08-09T18:23:03.192Z,3.00
2018-08-09T18:25:31.864Z,2.77
2018-08-09T18:28:00.474Z,2.93
2018-08-09T18:30:29.044Z,2.60
2018-08-09T18:32:57.700Z,2.70
2018-08-09T18:35:26.261Z,2.47
2018-08-09T18:37:55.553Z,2.33
2018-08-09T18:40:25.865Z,2.10
2018-08-09T18:42:54.709Z,2.20
2018-08-09T18:45:23.504Z,2.63
2018-08-09T18:47:52.054Z,2.60
2018-08-09T18:50:25.578Z,2.20
2018-08-09T18:52:54.412Z,2.50
2018-08-09T18:55:22.965Z,2.53
2018-08-09T18:57:51.464Z,2.33
2018-08-09T19:00:26.630Z,2.90
2018-08-09T19:02:55.340Z,2.67
2018-08-09T19:05:24.172Z,2.90
2018-08-09T19:07:52.789Z,2.77
2018-08-09T19:10:22.995Z,2.20
2018-08-09T19:12:51.528Z,2.90
2018-08-09T19:15:20.228Z,2.27
2018-08-09T19:17:48.936Z,2.73
2018-08-09T19:20:21.188Z,3.03
2018-08-09T19:22:49.966Z,2.97
2018-08-09T19:25:18.538Z,2.77
2018-08-09T19:27:47.104Z,2.60
2018-08-09T19:30:16.905Z,2.70
2018-08-09T19:32:45.465Z,2.33
2018-08-09T19:35:15.189Z,3.13
2018-08-09T19:37:44.366Z,3.10
2018-08-09T19:40:14.729Z,2.40
2018-08-09T19:42:43.897Z,2.50
2018-08-09T19:45:15.037Z,2.80
2018-08-09T19:47:43.821Z,2.63
2018-08-09T19:50:14.641Z,2.50
2018-08-09T19:52:43.885Z,2.37
2018-08-09T19:55:17.817Z,2.60
2018-08-09T19:57:47.558Z,2.47
2018-08-09T20:00:18.701Z,2.63
2018-08-09T20:02:48.002Z,2.30
2018-08-09T20:05:16.497Z,2.60
2018-08-09T20:07:44.984Z,2.33
2018-08-09T20:10:14.274Z,2.30
2018-08-09T20:12:43.538Z,2.63
2018-08-09T20:15:15.812Z,3.10
2018-08-09T20:17:44.377Z,2.47
2018-08-09T20:20:14.295Z,1.97
2018-08-09T20:22:43.576Z,2.80
2018-08-09T20:25:12.964Z,2.70
2018-08-09T20:27:42.145Z,2.10
2018-08-09T20:30:12.490Z,2.43
2018-08-09T20:32:41.542Z,2.70
2018-08-09T20:35:13.032Z,2.50
2018-08-09T20:37:42.488Z,2.47
2018-08-09T20:40:11.824Z,2.63
2018-08-09T20:42:40.851Z,2.30
2018-08-09T20:45:11.240Z,2.60
2018-08-09T20:47:39.818Z,2.57
2018-08-09T20:50:13.203Z,2.13
2018-08-09T20:52:42.755Z,2.10
2018-08-09T20:55:11.506Z,2.20
2018-08-09T20:57:41.054Z,1.97
2018-08-09T21:00:16.362Z,2.50
2018-08-09T21:02:46.692Z,2.60
2018-08-09T21:05:21.243Z,2.17
2018-08-09T21:07:50.610Z,2.40
2018-08-09T21:10:19.273Z,2.27
2018-08-09T21:12:47.796Z,2.13
2018-08-09T21:15:17.026Z,2.20
2018-08-09T21:17:45.689Z,2.60
2018-08-09T21:20:14.664Z,2.30
2018-08-09T21:22:44.067Z,2.40
2018-08-09T21:25:13.015Z,2.40
2018-08-09T21:27:41.631Z,2.20
2018-08-09T21:30:12.903Z,2.80
2018-08-09T21:32:41.441Z,1.80
2018-08-09T21:35:10.592Z,2.53
2018-08-09T21:37:39.952Z,2.17
2018-08-09T21:40:09.917Z,2.90
2018-08-09T21:42:38.581Z,2.43
2018-08-09T21:45:09.731Z,2.67
2018-08-09T21:47:38.393Z,2.63
2018-08-09T21:50:09.120Z,2.63
2018-08-09T21:52:37.695Z,2.43
2018-08-09T21:55:06.797Z,2.37
2018-08-09T21:57:35.280Z,2.47
2018-08-09T22:00:04.367Z,2.93
2018-08-09T22:02:32.949Z,2.37
2018-08-09T22:05:06.685Z,2.30
2018-08-09T22:08:42.648Z,2.83
2018-08-09T22:11:17.640Z,2.93
2018-08-09T22:13:51.734Z,2.70
2018-08-09T22:16:25.551Z,2.43
2018-08-09T22:18:59.372Z,2.93
2018-08-09T22:21:33.507Z,2.37
2018-08-09T22:24:02.089Z,2.60
2018-08-09T22:26:30.613Z,2.93
2018-08-09T22:28:59.063Z,2.90
2018-08-09T22:31:27.484Z,2.60
2018-08-09T22:33:56.045Z,2.43
2018-08-09T22:36:25.244Z,2.50
2018-08-09T22:38:53.736Z,3.30
2018-08-09T22:41:22.175Z,2.50
2018-08-09T22:43:50.654Z,2.60
2018-08-09T22:46:19.245Z,2.97
2018-08-09T22:48:47.745Z,2.90
2018-08-09T22:51:16.937Z,2.67
2018-08-09T22:53:45.400Z,2.70
2018-08-09T22:56:13.856Z,2.60
2018-08-09T22:58:42.330Z,3.00
2018-08-09T23:01:10.932Z,2.70
2018-08-09T23:03:39.466Z,2.73
2018-08-09T23:06:08.668Z,2.30
2018-08-09T23:08:37.336Z,2.87
2018-08-09T23:11:05.877Z,2.90
2018-08-09T23:13:34.345Z,3.07
2018-08-09T23:16:02.831Z,2.63
2018-08-09T23:18:31.347Z,2.53
2018-08-09T23:20:59.860Z,2.90
2018-08-09T23:23:28.321Z,2.50
2018-08-09T23:25:56.799Z,2.70
2018-08-09T23:28:25.569Z,2.67
2018-08-09T23:30:54.121Z,2.60
2018-08-09T23:33:24.273Z,3.13
2018-08-09T23:35:52.946Z,2.70
2018-08-09T23:38:21.397Z,2.90
2018-08-09T23:40:50.061Z,3.40
2018-08-09T23:43:18.536Z,3.03
2018-08-09T23:45:46.995Z,3.00
2018-08-09T23:48:15.485Z,3.10
2018-08-09T23:50:43.896Z,2.80
2018-08-09T23:53:12.508Z,2.80
2018-08-09T23:55:40.972Z,2.60
2018-08-09T23:58:09.477Z,3.10
